Time,TemperatureF,DewpointF,PressureIn,WindDirection,WindDirectionDegrees,WindSpeedMPH,WindSpeedGustMPH,Humidity,HourlyPrecipIn,Conditions,Clouds,dailyrainin,SoftwareType,DateUTC
2013-05-10 00:03:00,66.0,62.0,30.03,North,360,0.0,0.0,86,0.00,,,0.00,,2013-05-10 04:03:00,
2013-05-10 00:12:00,66.0,62.0,30.03,North,360,0.0,0.0,87,0.00,,,0.00,,2013-05-10 04:12:00,
2013-05-10 00:23:00,66.0,62.0,30.03,North,360,0.0,0.0,87,0.00,,,0.00,,2013-05-10 04:23:00,
2013-05-10 00:33:00,66.0,62.0,30.03,North,360,0.0,0.0,87,0.00,,,0.00,,2013-05-10 04:33:00,
2013-05-10 00:43:00,66.0,62.0,30.03,North,360,0.0,0.0,88,0.00,,,0.00,,2013-05-10 04:43:00,
2013-05-10 00:53:00,66.0,62.0,30.03,North,360,0.0,0.0,88,0.00,,,0.00,,2013-05-10 04:53:00,
2013-05-10 01:02:00,66.0,63.0,30.03,North,360,0.0,0.0,89,0.00,,,0.00,,2013-05-10 05:02:00,
2013-05-10 01:12:00,66.0,63.0,30.03,North,360,0.0,0.0,89,0.00,,,0.00,,2013-05-10 05:12:00,
2013-05-10 01:22:00,66.0,63.0,30.03,North,360,0.0,0.0,89,0.00,,,0.00,,2013-05-10 05:22:00,
2013-05-10 01:32:00,66.0,63.0,30.03,North,360,0.0,0.0,89,0.00,,,0.00,,2013-05-10 05:32:00,
2013-05-10 01:42:00,66.0,63.0,30.02,North,360,0.0,0.0,90,0.00,,,0.00,,2013-05-10 05:42:00,
2013-05-10 01:52:00,66.0,63.0,30.02,North,360,0.0,0.0,90,0.00,,,0.00,,2013-05-10 05:52:00,
2013-05-10 02:02:00,66.0,63.0,30.01,North,360,0.0,0.0,90,0.00,,,0.00,,2013-05-10 06:02:00,
2013-05-10 02:12:00,66.0,63.0,30.00,North,360,0.0,0.0,90,0.00,,,0.00,,2013-05-10 06:12:00,
2013-05-10 02:21:00,66.0,63.0,30.00,North,360,0.0,0.0,90,0.00,,,0.00,,2013-05-10 06:21:00,
2013-05-10 02:32:00,66.0,63.0,29.99,North,360,0.0,0.0,90,0.00,,,0.00,,2013-05-10 06:32:00,
2013-05-10 02:42:00,66.0,63.0,29.99,North,360,0.0,0.0,91,0.00,,,0.00,,2013-05-10 06:42:00,
2013-05-10 02:52:00,66.0,63.0,29.99,North,360,0.0,0.0,91,0.00,,,0.00,,2013-05-10 06:52:00,
2013-05-10 03:02:00,65.0,62.0,29.99,North,360,0.0,0.0,91,0.00,,,0.00,,2013-05-10 07:02:00,
2013-05-10 03:12:00,65.0,62.0,29.99,North,360,0.0,0.0,91,0.00,,,0.00,,2013-05-10 07:12:00,
2013-05-10 03:22:00,65.0,63.0,29.99,North,360,0.0,0.0,92,0.00,,,0.00,,2013-05-10 07:22:00,
2013-05-10 03:31:00,65.0,63.0,29.99,North,360,0.0,0.0,92,0.00,,,0.00,,2013-05-10 07:31:00,
2013-05-10 03:42:00,65.0,63.0,29.98,North,360,0.0,0.0,92,0.00,,,0.00,,2013-05-10 07:42:00,
2013-05-10 03:52:00,65.0,63.0,29.98,North,360,0.0,0.0,92,0.00,,,0.00,,2013-05-10 07:52:00,
2013-05-10 04:02:00,65.0,63.0,29.98,North,360,0.0,0.0,93,0.00,,,0.00,,2013-05-10 08:02:00,
2013-05-10 04:12:00,64.0,62.0,29.98,North,360,0.0,0.0,93,0.00,,,0.00,,2013-05-10 08:12:00,
2013-05-10 04:22:00,64.0,62.0,29.98,North,360,0.0,0.0,93,0.00,,,0.00,,2013-05-10 08:22:00,
2013-05-10 04:32:00,64.0,62.0,29.96,North,360,0.0,0.0,94,0.00,,,0.00,,2013-05-10 08:32:00,
2013-05-10 04:42:00,65.0,63.0,29.95,North,360,0.0,0.0,94,0.00,,,0.00,,2013-05-10 08:42:00,
2013-05-10 04:52:00,65.0,63.0,29.95,North,360,0.0,0.0,94,0.00,,,0.00,,2013-05-10 08:52:00,
2013-05-10 05:01:00,64.0,62.0,29.95,North,360,0.0,0.0,94,0.00,,,0.00,,2013-05-10 09:01:00,
2013-05-10 05:11:00,64.0,62.0,29.95,North,360,0.0,0.0,94,0.00,,,0.00,,2013-05-10 09:11:00,
2013-05-10 05:21:00,64.0,62.0,29.95,North,360,0.0,0.0,94,0.00,,,0.00,,2013-05-10 09:21:00,
2013-05-10 05:32:00,64.0,62.0,29.94,North,360,0.0,0.0,94,0.00,,,0.00,,2013-05-10 09:32:00,
2013-05-10 05:43:00,64.0,63.0,29.95,North,360,0.0,0.0,95,0.00,,,0.00,,2013-05-10 09:43:00,
2013-05-10 05:52:00,64.0,63.0,29.95,North,360,0.0,0.0,95,0.00,,,0.00,,2013-05-10 09:52:00,
2013-05-10 06:03:00,65.0,64.0,29.94,North,360,0.0,0.0,95,0.00,,,0.00,,2013-05-10 10:03:00,
2013-05-10 06:12:00,65.0,64.0,29.94,North,360,0.0,0.0,95,0.00,,,0.00,,2013-05-10 10:12:00,
2013-05-10 06:23:00,65.0,64.0,29.95,North,360,0.0,0.0,95,0.00,,,0.00,,2013-05-10 10:23:00,
2013-05-10 06:32:00,65.0,64.0,29.94,North,360,0.0,0.0,95,0.00,,,0.00,,2013-05-10 10:32:00,
2013-05-10 06:42:00,65.0,64.0,29.95,North,360,0.0,0.0,96,0.00,,,0.00,,2013-05-10 10:42:00,
2013-05-10 06:53:00,65.0,64.0,29.95,North,360,0.0,0.0,96,0.00,,,0.00,,2013-05-10 10:53:00,
2013-05-10 07:02:00,65.0,64.0,29.95,North,360,0.0,0.0,96,0.00,,,0.00,,2013-05-10 11:02:00,
2013-05-10 07:12:00,66.0,65.0,29.95,North,360,0.0,0.0,96,0.00,,,0.00,,2013-05-10 11:12:00,
2013-05-10 07:22:00,66.0,65.0,29.95,North,360,0.0,0.0,96,0.00,,,0.00,,2013-05-10 11:22:00,
2013-05-10 07:32:00,66.0,65.0,29.95,North,360,0.0,0.0,96,0.00,,,0.00,,2013-05-10 11:32:00,
2013-05-10 07:42:00,66.0,65.0,29.95,North,360,0.0,0.0,97,0.00,,,0.00,,2013-05-10 11:42:00,
2013-05-10 07:52:00,66.0,65.0,29.95,North,360,0.0,0.0,97,0.00,,,0.00,,2013-05-10 11:52:00,
2013-05-10 08:01:00,67.0,66.0,29.95,North,360,0.0,0.0,97,0.00,,,0.00,,2013-05-10 12:01:00,
2013-05-10 08:12:00,68.0,67.0,29.95,North,360,0.0,0.0,97,0.00,,,0.00,,2013-05-10 12:12:00,
2013-05-10 08:22:00,68.0,67.0,29.95,North,360,0.0,0.0,97,0.00,,,0.00,,2013-05-10 12:22:00,
2013-05-10 08:32:00,70.0,69.0,29.96,SSW,201,0.0,0.0,97,0.00,,,0.00,,2013-05-10 12:32:00,
2013-05-10 08:42:00,70.0,69.0,29.96,SSW,201,0.0,0.0,97,0.00,,,0.00,,2013-05-10 12:42:00,
2013-05-10 08:52:00,70.0,69.0,29.96,SSW,192,1.0,1.0,97,0.00,,,0.00,,2013-05-10 12:52:00,
2013-05-10 09:01:00,71.0,70.0,29.97,South,191,1.0,3.0,96,0.00,,,0.00,,2013-05-10 13:01:00,
2013-05-10 09:11:00,71.0,70.0,29.97,South,191,1.0,3.0,96,0.00,,,0.00,,2013-05-10 13:11:00,
2013-05-10 09:21:00,71.0,69.0,29.97,South,187,2.0,2.0,95,0.00,,,0.00,,2013-05-10 13:21:00,
2013-05-10 09:32:00,72.0,70.0,29.97,North,360,0.0,1.0,95,0.00,,,0.00,,2013-05-10 13:32:00,
2013-05-10 09:42:00,73.0,71.0,29.97,South,186,3.0,3.0,92,0.00,,,0.00,,2013-05-10 13:42:00,
2013-05-10 09:52:00,73.0,71.0,29.97,South,186,3.0,3.0,92,0.00,,,0.00,,2013-05-10 13:52:00,
2013-05-10 10:02:00,73.0,70.0,29.97,NW,314,0.0,1.0,91,0.00,,,0.00,,2013-05-10 14:02:00,
2013-05-10 10:11:00,74.0,70.0,29.97,South,177,1.0,3.0,88,0.00,,,0.00,,2013-05-10 14:11:00,
2013-05-10 10:21:00,74.0,70.0,29.97,South,177,1.0,3.0,88,0.00,,,0.00,,2013-05-10 14:21:00,
2013-05-10 10:32:00,75.0,71.0,29.97,NE,45,1.0,1.0,87,0.00,,,0.00,,2013-05-10 14:32:00,
2013-05-10 10:42:00,76.0,71.0,29.97,North,360,0.0,0.0,85,0.00,,,0.00,,2013-05-10 14:42:00,
2013-05-10 10:52:00,76.0,71.0,29.97,North,360,0.0,0.0,85,0.00,,,0.00,,2013-05-10 14:52:00,
2013-05-10 11:02:00,77.0,71.0,29.96,SW,228,0.0,0.0,83,0.00,,,0.00,,2013-05-10 15:02:00,
2013-05-10 11:20:00,-999.0,-99.9,29.96,South,184,3.0,5.0,81,0.00,,,0.00,,2013-05-10 15:20:00,
2013-05-10 11:32:00,79.0,72.0,29.97,South,182,8.0,8.0,80,0.00,,,0.00,,2013-05-10 15:32:00,
2013-05-10 11:42:00,80.0,72.0,29.97,WSW,257,0.0,3.0,76,0.00,,,0.00,,2013-05-10 15:42:00,
2013-05-10 11:53:00,80.0,72.0,29.97,WSW,257,0.0,3.0,76,0.00,,,0.00,,2013-05-10 15:53:00,
2013-05-10 12:02:00,81.0,72.0,29.98,SSW,210,2.0,4.0,73,0.00,,,0.00,,2013-05-10 16:02:00,
2013-05-10 12:12:00,81.0,70.0,29.99,South,176,6.0,6.0,70,0.00,,,0.00,,2013-05-10 16:12:00,
2013-05-10 12:23:00,81.0,70.0,29.99,South,176,6.0,6.0,70,0.00,,,0.00,,2013-05-10 16:23:00,
2013-05-10 12:32:00,82.0,70.0,29.98,NE,46,1.0,1.0,68,0.00,,,0.00,,2013-05-10 16:32:00,
2013-05-10 12:42:00,83.0,70.0,29.98,WNW,287,0.0,4.0,66,0.00,,,0.00,,2013-05-10 16:42:00,
2013-05-10 12:53:00,83.0,70.0,29.98,WNW,287,0.0,4.0,66,0.00,,,0.00,,2013-05-10 16:53:00,
2013-05-10 13:02:00,83.0,69.0,29.98,North,360,0.0,5.0,63,0.00,,,0.00,,2013-05-10 17:02:00,
2013-05-10 13:12:00,83.0,69.0,29.98,North,360,0.0,5.0,63,0.00,,,0.00,,2013-05-10 17:12:00,
2013-05-10 13:22:00,83.0,69.0,29.98,North,360,0.0,0.0,62,0.00,,,0.00,,2013-05-10 17:22:00,
2013-05-10 13:32:00,83.0,67.0,29.98,North,360,0.0,0.0,59,0.00,,,0.00,,2013-05-10 17:32:00,
2013-05-10 13:42:00,85.0,66.0,29.98,South,174,3.0,5.0,54,0.00,,,0.00,,2013-05-10 17:42:00,
2013-05-10 13:52:00,85.0,66.0,29.98,South,174,3.0,5.0,54,0.00,,,0.00,,2013-05-10 17:52:00,
2013-05-10 14:10:00,-999.0,-99.9,29.98,South,181,1.0,1.0,52,0.00,,,0.00,,2013-05-10 18:10:00,
2013-05-10 14:22:00,86.0,64.0,29.98,South,181,2.0,4.0,48,0.00,,,0.00,,2013-05-10 18:22:00,
2013-05-10 14:34:00,86.0,63.0,29.97,North,360,0.0,6.0,47,0.00,,,0.00,,2013-05-10 18:34:00,
2013-05-10 14:43:00,86.0,63.0,29.97,South,175,6.0,6.0,46,0.00,,,0.00,,2013-05-10 18:43:00,
2013-05-10 14:54:00,86.0,63.0,29.97,South,175,6.0,6.0,46,0.00,,,0.00,,2013-05-10 18:54:00,
2013-05-10 15:02:00,87.0,64.0,29.96,South,174,4.0,4.0,46,0.00,,,0.00,,2013-05-10 19:02:00,
2013-05-10 15:11:00,86.0,63.0,29.96,SSE,164,7.0,7.0,46,0.00,,,0.00,,2013-05-10 19:11:00,
2013-05-10 15:21:00,86.0,63.0,29.96,SSE,164,7.0,7.0,46,0.00,,,0.00,,2013-05-10 19:21:00,
2013-05-10 15:32:00,87.0,64.0,29.96,South,179,4.0,4.0,46,0.00,,,0.00,,2013-05-10 19:32:00,
2013-05-10 15:42:00,86.0,63.0,29.95,South,179,6.0,6.0,47,0.00,,,0.00,,2013-05-10 19:42:00,
2013-05-10 15:52:00,86.0,63.0,29.95,South,179,6.0,6.0,47,0.00,,,0.00,,2013-05-10 19:52:00,
2013-05-10 16:01:00,86.0,64.0,29.95,South,183,0.0,1.0,48,0.00,,,0.00,,2013-05-10 20:01:00,
2013-05-10 16:12:00,86.0,64.0,29.95,South,183,0.0,1.0,48,0.00,,,0.00,,2013-05-10 20:12:00,
2013-05-10 16:21:00,86.0,65.0,29.95,South,182,4.0,5.0,50,0.00,,,0.00,,2013-05-10 20:21:00,
2013-05-10 16:32:00,86.0,65.0,29.95,North,360,0.0,0.0,50,0.00,,,0.00,,2013-05-10 20:32:00,
2013-05-10 16:42:00,86.0,65.0,29.95,North,360,0.0,0.0,50,0.00,,,0.00,,2013-05-10 20:42:00,
2013-05-10 16:52:00,86.0,66.0,29.94,North,360,0.0,1.0,52,0.00,,,0.00,,2013-05-10 20:52:00,
2013-05-10 17:02:00,85.0,65.0,29.93,North,360,0.0,0.0,52,0.00,,,0.00,,2013-05-10 21:02:00,
2013-05-10 17:11:00,85.0,66.0,29.93,SSE,155,2.0,2.0,53,0.00,,,0.00,,2013-05-10 21:11:00,
2013-05-10 17:25:00,85.0,66.0,29.93,SSE,155,2.0,2.0,53,0.00,,,0.00,,2013-05-10 21:25:00,
2013-05-10 17:32:00,84.0,66.0,29.93,North,360,0.0,0.0,55,0.00,,,0.00,,2013-05-10 21:32:00,
2013-05-10 17:43:00,84.0,66.0,29.93,North,360,0.0,0.0,54,0.00,,,0.00,,2013-05-10 21:43:00,
2013-05-10 17:53:00,84.0,66.0,29.93,North,360,0.0,0.0,54,0.00,,,0.00,,2013-05-10 21:53:00,
2013-05-10 18:02:00,83.0,66.0,29.92,South,187,0.0,1.0,56,0.00,,,0.00,,2013-05-10 22:02:00,
2013-05-10 18:13:00,82.0,66.0,29.92,North,360,0.0,0.0,58,0.00,,,0.00,,2013-05-10 22:13:00,
2013-05-10 18:22:00,82.0,66.0,29.92,North,360,0.0,0.0,58,0.00,,,0.00,,2013-05-10 22:22:00,
2013-05-10 18:32:00,81.0,66.0,29.91,North,360,0.0,0.0,60,0.00,,,0.00,,2013-05-10 22:32:00,
2013-05-10 18:42:00,81.0,67.0,29.91,North,360,0.0,0.0,62,0.00,,,0.00,,2013-05-10 22:42:00,
2013-05-10 18:52:00,81.0,67.0,29.91,North,360,0.0,0.0,62,0.00,,,0.00,,2013-05-10 22:52:00,
2013-05-10 19:02:00,80.0,67.0,29.91,North,360,0.0,0.0,64,0.00,,,0.00,,2013-05-10 23:02:00,
2013-05-10 19:12:00,80.0,67.0,29.91,North,360,0.0,0.0,64,0.00,,,0.00,,2013-05-10 23:12:00,
2013-05-10 19:22:00,79.0,66.0,29.90,North,360,0.0,0.0,64,0.00,,,0.00,,2013-05-10 23:22:00,
2013-05-10 19:33:00,79.0,67.0,29.89,North,360,0.0,0.0,66,0.00,,,0.00,,2013-05-10 23:33:00,
2013-05-10 19:42:00,78.0,66.0,29.89,North,360,0.0,0.0,67,0.00,,,0.00,,2013-05-10 23:42:00,
2013-05-10 19:52:00,78.0,66.0,29.89,North,360,0.0,0.0,67,0.00,,,0.00,,2013-05-10 23:52:00,
2013-05-10 20:02:00,78.0,67.0,29.91,North,360,0.0,0.0,68,0.00,,,0.00,,2013-05-11 00:02:00,
2013-05-10 20:11:00,77.0,66.0,29.90,North,360,0.0,0.0,69,0.00,,,0.00,,2013-05-11 00:11:00,
2013-05-10 20:21:00,77.0,66.0,29.90,North,360,0.0,0.0,69,0.00,,,0.00,,2013-05-11 00:21:00,
2013-05-10 20:32:00,77.0,66.0,29.91,North,360,0.0,0.0,70,0.00,,,0.00,,2013-05-11 00:32:00,
2013-05-10 20:42:00,76.0,66.0,29.92,North,360,0.0,0.0,71,0.00,,,0.00,,2013-05-11 00:42:00,
2013-05-10 20:52:00,76.0,66.0,29.92,North,360,0.0,0.0,71,0.00,,,0.00,,2013-05-11 00:52:00,
2013-05-10 21:01:00,75.0,66.0,29.92,North,360,0.0,0.0,73,0.00,,,0.00,,2013-05-11 01:01:00,
2013-05-10 21:11:00,75.0,66.0,29.91,North,360,0.0,0.0,73,0.00,,,0.00,,2013-05-11 01:11:00,
2013-05-10 21:21:00,75.0,66.0,29.91,North,360,0.0,0.0,73,0.00,,,0.00,,2013-05-11 01:21:00,
2013-05-10 21:32:00,75.0,67.0,29.91,North,360,0.0,0.0,75,0.00,,,0.00,,2013-05-11 01:32:00,
2013-05-10 21:42:00,74.0,66.0,29.92,North,360,0.0,0.0,76,0.00,,,0.00,,2013-05-11 01:42:00,
2013-05-10 21:52:00,74.0,66.0,29.92,North,360,0.0,0.0,76,0.00,,,0.00,,2013-05-11 01:52:00,
2013-05-10 22:02:00,74.0,66.0,29.92,North,360,0.0,0.0,77,0.00,,,0.00,,2013-05-11 02:02:00,
2013-05-10 22:11:00,74.0,67.0,29.92,North,360,0.0,0.0,80,0.00,,,0.00,,2013-05-11 02:11:00,
2013-05-10 22:22:00,74.0,67.0,29.92,North,360,0.0,0.0,80,0.00,,,0.00,,2013-05-11 02:22:00,
2013-05-10 22:32:00,73.0,66.0,29.93,North,360,0.0,0.0,80,0.00,,,0.00,,2013-05-11 02:32:00,
2013-05-10 22:42:00,73.0,67.0,29.93,North,360,0.0,0.0,81,0.00,,,0.00,,2013-05-11 02:42:00,
2013-05-10 22:52:00,73.0,67.0,29.93,North,360,0.0,0.0,81,0.00,,,0.00,,2013-05-11 02:52:00,
2013-05-10 23:01:00,73.0,67.0,29.93,North,360,0.0,0.0,81,0.00,,,0.00,,2013-05-11 03:01:00,
2013-05-10 23:11:00,73.0,67.0,29.93,North,360,0.0,0.0,81,0.00,,,0.00,,2013-05-11 03:11:00,
2013-05-10 23:21:00,73.0,67.0,29.93,North,360,0.0,0.0,82,0.00,,,0.00,,2013-05-11 03:21:00,
2013-05-10 23:33:00,73.0,68.0,29.95,North,360,0.0,0.0,83,0.00,,,0.00,,2013-05-11 03:33:00,
2013-05-10 23:42:00,73.0,68.0,29.94,North,360,0.0,0.0,84,0.00,,,0.00,,2013-05-11 03:42:00,
2013-05-10 23:53:00,73.0,68.0,29.94,North,360,0.0,0.0,84,0.00,,,0.00,,2013-05-11 03:53:00,